Time;durP1;ratioP1;P1;durP2;ratioP2;P2;SDS_P1;SDS_P2;PMS_P1;PMS_P2;Temp;Humidity;BMP_temperature;BMP_pressure;BME280_temperature;BME280_humidity;BME280_pressure;Samples;Min_cycle;Max_cycle;Signal;HPM_P1;HPM_P2
2023/03/06 00:00:24;;;;;;;9.77;2.30;;;2.40;99.90;;;;;;5147451;27;20039;-63
2023/03/06 00:02:50;;;;;;;6.88;2.67;;;2.40;99.90;;;;;;5155499;27;20077;-63
2023/03/06 00:05:16;;;;;;;7.53;2.30;;;2.40;99.90;;;;;;5168090;27;20034;-63
2023/03/06 00:07:42;;;;;;;5.85;2.35;;;2.40;99.90;;;;;;5155590;27;20545;-62
2023/03/06 00:10:12;;;;;;;7.80;2.38;;;2.30;99.90;;;;;;5151721;27;20037;-62
2023/03/06 00:12:38;;;;;;;6.40;2.20;;;2.30;99.90;;;;;;5153481;27;20113;-61
2023/03/06 00:15:04;;;;;;;5.53;2.30;;;2.30;99.90;;;;;;5141394;27;20156;-63
2023/03/06 00:17:29;;;;;;;7.15;2.25;;;2.30;99.90;;;;;;5157401;27;20049;-63
2023/03/06 00:19:55;;;;;;;7.90;2.75;;;2.30;99.90;;;;;;5153324;27;20035;-62
2023/03/06 00:22:21;;;;;;;5.70;2.25;;;2.30;99.90;;;;;;5153273;27;20033;-62
2023/03/06 00:24:46;;;;;;;6.30;2.10;;;2.30;99.90;;;;;;5151879;27;20082;-63
2023/03/06 00:27:12;;;;;;;5.97;2.30;;;2.30;99.90;;;;;;5145826;27;20106;-63
2023/03/06 00:29:38;;;;;;;9.82;2.20;;;2.30;99.90;;;;;;5161554;27;20034;-63
2023/03/06 00:32:03;;;;;;;6.90;2.25;;;2.30;99.90;;;;;;5142827;27;20031;-63
2023/03/06 00:34:29;;;;;;;8.55;2.38;;;2.30;99.90;;;;;;5153723;27;20060;-63
2023/03/06 00:36:55;;;;;;;5.68;2.20;;;2.20;99.90;;;;;;5160375;27;20074;-62
2023/03/06 00:39:21;;;;;;;7.38;2.42;;;2.20;99.90;;;;;;5159134;27;20483;-63
2023/03/06 00:41:46;;;;;;;4.68;2.15;;;2.20;99.90;;;;;;5170085;27;20037;-63
2023/03/06 00:44:12;;;;;;;5.05;2.50;;;2.20;99.90;;;;;;5150145;27;20103;-63
2023/03/06 00:46:37;;;;;;;6.30;2.70;;;2.20;99.90;;;;;;5161606;27;20089;-63
2023/03/06 00:49:03;;;;;;;8.93;2.45;;;2.20;99.90;;;;;;5149889;27;20079;-63
2023/03/06 00:51:29;;;;;;;7.22;2.67;;;2.20;99.90;;;;;;5161332;27;20038;-63
2023/03/06 00:53:54;;;;;;;11.68;2.83;;;2.20;99.90;;;;;;5164904;27;20043;-63
2023/03/06 00:56:20;;;;;;;6.50;3.17;;;2.20;99.90;;;;;;5158362;27;20037;-63
2023/03/06 00:58:45;;;;;;;7.68;3.10;;;2.20;99.90;;;;;;5152117;27;20122;-63
2023/03/06 01:01:11;;;;;;;7.65;3.53;;;2.20;99.90;;;;;;5160061;27;20071;-62
2023/03/06 01:03:37;;;;;;;6.05;2.85;;;2.20;99.90;;;;;;5163753;27;20030;-63
2023/03/06 01:06:02;;;;;;;8.13;3.50;;;2.20;99.90;;;;;;5144047;27;20485;-63
2023/03/06 01:08:28;;;;;;;7.32;3.78;;;2.20;99.90;;;;;;5157206;27;20038;-63
2023/03/06 01:10:54;;;;;;;10.13;3.67;;;2.20;99.90;;;;;;5159298;27;20419;-63
2023/03/06 01:13:20;;;;;;;10.65;3.47;;;2.30;99.90;;;;;;5162075;27;20026;-62
2023/03/06 01:15:45;;;;;;;9.65;4.30;;;2.30;99.90;;;;;;5144932;27;20039;-63
2023/03/06 01:18:11;;;;;;;9.23;4.07;;;2.30;99.90;;;;;;5161201;27;20035;-64
2023/03/06 01:20:37;;;;;;;11.85;4.40;;;2.30;99.90;;;;;;5143392;27;20038;-63
2023/03/06 01:23:03;;;;;;;11.20;4.57;;;2.20;99.90;;;;;;5140581;27;20030;-63
2023/03/06 01:25:28;;;;;;;6.90;4.40;;;2.30;99.90;;;;;;5158711;27;20038;-63
2023/03/06 01:27:54;;;;;;;13.52;4.28;;;2.30;99.90;;;;;;5152274;27;20430;-62
2023/03/06 01:30:20;;;;;;;10.27;4.40;;;2.30;99.90;;;;;;5162440;27;20034;-61
2023/03/06 01:32:47;;;;;;;10.70;4.38;;;2.30;99.90;;;;;;5160367;27;20091;-63
2023/03/06 01:35:13;;;;;;;9.80;4.65;;;2.30;99.90;;;;;;5153629;27;20430;-63
2023/03/06 01:37:39;;;;;;;12.27;4.65;;;2.30;99.90;;;;;;5160756;27;20151;-63
2023/03/06 01:40:07;;;;;;;8.52;5.10;;;2.40;99.90;;;;;;5144870;27;20035;-63
2023/03/06 01:42:33;;;;;;;9.43;4.93;;;2.40;99.90;;;;;;5150356;27;20112;-63
2023/03/06 01:45:07;;;;;;;11.38;5.25;;;2.40;99.90;;;;;;5154250;27;20461;-62
2023/03/06 01:47:33;;;;;;;10.52;5.60;;;2.40;99.90;;;;;;5157895;27;20031;-62
2023/03/06 01:50:00;;;;;;;12.45;5.60;;;2.40;99.90;;;;;;5149836;27;20050;-63
2023/03/06 01:52:30;;;;;;;9.60;5.32;;;2.40;99.90;;;;;;5153968;27;20046;-63
2023/03/06 01:55:03;;;;;;;9.50;5.65;;;2.40;99.90;;;;;;5143803;27;20397;-62
2023/03/06 01:57:39;;;;;;;11.63;5.60;;;2.40;99.90;;;;;;5143971;27;20043;-63
2023/03/06 02:00:12;;;;;;;13.07;5.57;;;2.40;99.90;;;;;;5159265;27;20074;-62
2023/03/06 02:02:41;;;;;;;11.27;5.82;;;2.40;99.90;;;;;;5164364;27;20125;-63
2023/03/06 02:05:07;;;;;;;12.10;5.70;;;2.40;99.90;;;;;;5155430;27;20031;-63
2023/03/06 02:07:34;;;;;;;10.73;5.43;;;2.40;99.90;;;;;;5137994;27;20552;-63
2023/03/06 02:09:59;;;;;;;10.32;5.70;;;2.40;99.90;;;;;;5155520;27;20038;-62
2023/03/06 02:12:25;;;;;;;13.55;6.43;;;2.50;99.90;;;;;;5146435;27;20438;-63
2023/03/06 02:14:51;;;;;;;12.60;6.32;;;2.50;99.90;;;;;;5154522;27;20038;-62
2023/03/06 02:17:19;;;;;;;9.02;5.13;;;2.50;99.90;;;;;;5153214;27;20401;-61
2023/03/06 02:19:57;;;;;;;14.10;6.40;;;2.50;99.90;;;;;;5153697;27;20316;-63
2023/03/06 02:22:30;;;;;;;11.63;6.05;;;2.50;99.90;;;;;;5159165;27;20041;-63
2023/03/06 02:25:03;;;;;;;9.63;5.95;;;2.50;99.90;;;;;;5148112;27;20042;-61
2023/03/06 02:27:29;;;;;;;10.07;6.30;;;2.50;99.90;;;;;;5149247;27;20038;-63
2023/03/06 02:29:55;;;;;;;12.45;6.00;;;3.10;99.90;;;;;;5141197;27;20055;-63
2023/03/06 02:32:21;;;;;;;12.27;5.88;;;3.50;99.90;;;;;;5159974;27;20091;-63
2023/03/06 02:34:53;;;;;;;13.13;6.80;;;2.60;99.90;;;;;;5137588;27;20146;-63
2023/03/06 02:37:19;;;;;;;12.18;6.40;;;2.60;99.90;;;;;;5162345;27;20042;-68
2023/03/06 02:39:55;;;;;;;13.48;6.28;;;2.60;99.90;;;;;;5165982;27;20400;-63
2023/03/06 02:42:27;;;;;;;10.23;5.78;;;2.60;99.90;;;;;;5141852;27;20054;-63
2023/03/06 02:44:55;;;;;;;11.25;5.88;;;2.60;99.90;;;;;;5161663;27;20031;-63
2023/03/06 02:47:21;;;;;;;10.40;6.05;;;2.60;99.90;;;;;;5153649;27;20499;-63
2023/03/06 02:49:46;;;;;;;13.35;6.93;;;2.60;99.90;;;;;;5155880;27;20049;-63
2023/03/06 02:52:12;;;;;;;12.30;7.00;;;2.60;99.90;;;;;;5161168;27;20095;-63
2023/03/06 02:54:37;;;;;;;13.18;6.53;;;2.70;99.90;;;;;;5161316;27;20432;-63
2023/03/06 02:57:03;;;;;;;12.55;7.15;;;2.70;99.90;;;;;;5158099;27;20492;-63
2023/03/06 02:59:29;;;;;;;19.08;7.32;;;2.70;99.90;;;;;;5144877;27;20460;-64
2023/03/06 03:01:54;;;;;;;14.50;7.63;;;2.70;99.90;;;;;;5151495;27;20031;-62
2023/03/06 03:04:20;;;;;;;12.13;7.32;;;2.70;99.90;;;;;;5143020;27;20069;-63
2023/03/06 03:06:46;;;;;;;15.15;7.93;;;3.00;99.90;;;;;;5143166;27;20046;-63
2023/03/06 03:09:11;;;;;;;19.92;7.90;;;2.80;99.90;;;;;;5164619;27;20034;-63
2023/03/06 03:11:37;;;;;;;15.10;7.97;;;2.70;99.90;;;;;;5149350;27;20396;-62
2023/03/06 03:14:02;;;;;;;15.90;8.10;;;2.70;99.90;;;;;;5157714;27;20038;-64
2023/03/06 03:16:28;;;;;;;16.77;9.13;;;2.80;99.90;;;;;;5144107;27;20043;-63
2023/03/06 03:18:54;;;;;;;17.63;8.88;;;2.80;99.90;;;;;;5159698;27;20030;-64
2023/03/06 03:21:19;;;;;;;16.60;8.68;;;2.80;99.90;;;;;;5145933;27;20049;-63
2023/03/06 03:23:45;;;;;;;15.65;8.63;;;2.80;99.90;;;;;;5145071;27;20046;-64
2023/03/06 03:26:17;;;;;;;14.82;8.60;;;2.80;99.90;;;;;;5165993;27;20396;-64
2023/03/06 03:28:43;;;;;;;16.45;8.70;;;2.80;99.90;;;;;;5150440;27;20034;-64
2023/03/06 03:31:11;;;;;;;15.50;8.80;;;2.80;99.90;;;;;;5152506;27;20042;-64
2023/03/06 03:33:37;;;;;;;15.65;8.13;;;2.80;99.90;;;;;;5151024;27;20034;-64
2023/03/06 03:36:05;;;;;;;14.77;8.00;;;2.80;99.90;;;;;;5144136;27;20038;-64
2023/03/06 03:38:31;;;;;;;13.65;7.55;;;2.80;99.90;;;;;;5140439;27;20081;-63
2023/03/06 03:40:59;;;;;;;15.27;7.75;;;2.80;99.90;;;;;;5150521;27;20034;-64
2023/03/06 03:43:24;;;;;;;14.00;7.00;;;2.90;99.90;;;;;;5147168;27;20042;-63
2023/03/06 03:45:52;;;;;;;13.77;7.32;;;2.80;99.90;;;;;;5143018;27;20430;-63
2023/03/06 03:48:17;;;;;;;13.38;7.18;;;2.90;99.90;;;;;;5158094;27;20113;-64
2023/03/06 03:50:43;;;;;;;11.65;6.35;;;2.90;99.90;;;;;;5153843;27;20118;-63
2023/03/06 03:53:09;;;;;;;12.52;6.25;;;3.00;99.90;;;;;;5160606;27;20377;-63
2023/03/06 03:55:35;;;;;;;11.75;5.63;;;3.00;99.90;;;;;;5146735;27;20042;-63
2023/03/06 03:58:01;;;;;;;11.98;5.82;;;3.00;99.90;;;;;;5158984;27;20053;-63
2023/03/06 04:00:26;;;;;;;12.52;5.50;;;3.00;99.90;;;;;;5158840;27;20042;-63
2023/03/06 04:02:52;;;;;;;9.38;5.28;;;3.10;99.90;;;;;;5157584;27;20124;-64
2023/03/06 04:05:18;;;;;;;7.35;4.32;;;3.00;99.90;;;;;;5144244;27;20498;-63
2023/03/06 04:07:43;;;;;;;9.20;4.22;;;3.10;99.90;;;;;;5149572;27;20142;-63
2023/03/06 04:10:10;;;;;;;10.57;4.45;;;3.10;99.90;;;;;;5147819;27;20399;-64
2023/03/06 04:12:36;;;;;;;7.88;3.65;;;3.10;99.90;;;;;;5137277;27;20431;-63
2023/03/06 04:15:03;;;;;;;6.60;3.17;;;3.10;99.90;;;;;;5156912;27;20163;-64
2023/03/06 04:17:28;;;;;;;7.03;2.50;;;3.20;99.90;;;;;;5149638;27;20042;-64
2023/03/06 04:19:54;;;;;;;2.97;1.80;;;3.10;99.90;;;;;;5162484;27;20506;-62
2023/03/06 04:22:19;;;;;;;4.75;1.77;;;3.20;99.90;;;;;;5153831;27;20039;-63
2023/03/06 04:24:48;;;;;;;2.95;1.35;;;3.20;99.90;;;;;;5146464;27;20026;-63
2023/03/06 04:27:14;;;;;;;2.17;1.30;;;3.20;99.90;;;;;;5145976;27;20037;-63
2023/03/06 04:29:40;;;;;;;2.50;1.40;;;3.20;99.90;;;;;;5154731;27;20035;-63
2023/03/06 04:32:06;;;;;;;1.88;1.40;;;3.20;99.90;;;;;;5147550;27;20130;-63
2023/03/06 04:34:31;;;;;;;1.25;1.15;;;3.20;99.90;;;;;;5152801;27;20037;-62
2023/03/06 04:36:57;;;;;;;2.55;1.20;;;3.20;99.90;;;;;;5146338;27;20105;-62
2023/03/06 04:39:22;;;;;;;1.88;1.30;;;3.20;99.90;;;;;;5146645;27;20037;-62
2023/03/06 04:41:48;;;;;;;3.15;1.40;;;3.20;99.90;;;;;;5143179;27;20130;-63
2023/03/06 04:44:14;;;;;;;2.08;1.30;;;3.20;99.90;;;;;;5147120;27;20062;-63
2023/03/06 04:46:39;;;;;;;2.25;1.20;;;3.30;99.90;;;;;;5155238;27;20041;-63
2023/03/06 04:49:05;;;;;;;2.33;1.10;;;3.30;99.90;;;;;;5163403;27;20106;-62
2023/03/06 04:51:30;;;;;;;2.85;1.10;;;3.30;99.90;;;;;;5157103;27;20090;-62
2023/03/06 04:53:56;;;;;;;1.23;1.10;;;3.30;99.90;;;;;;5152489;27;20114;-63
2023/03/06 04:56:22;;;;;;;2.20;1.00;;;3.30;99.90;;;;;;5145969;27;20500;-63
2023/03/06 04:58:47;;;;;;;1.83;1.10;;;3.30;99.90;;;;;;5145520;27;20523;-63
2023/03/06 05:01:13;;;;;;;1.60;1.27;;;3.30;99.90;;;;;;5146137;27;20042;-63
2023/03/06 05:03:39;;;;;;;2.00;1.20;;;3.30;99.90;;;;;;5141044;27;20050;-62
2023/03/06 05:06:05;;;;;;;2.10;1.13;;;3.30;99.90;;;;;;5161305;27;20087;-63
2023/03/06 05:08:30;;;;;;;2.55;1.38;;;3.30;99.90;;;;;;5148824;27;20039;-63
2023/03/06 05:10:59;;;;;;;2.45;1.20;;;3.30;99.90;;;;;;5143701;27;20042;-62
2023/03/06 05:13:26;;;;;;;4.75;1.48;;;3.30;99.90;;;;;;5144694;27;20034;-63
2023/03/06 05:15:51;;;;;;;2.63;1.40;;;3.30;99.90;;;;;;5136159;27;20058;-63
2023/03/06 05:18:18;;;;;;;2.45;1.40;;;3.30;99.90;;;;;;5156503;27;20043;-63
2023/03/06 05:20:43;;;;;;;2.65;1.38;;;3.30;99.90;;;;;;5142320;27;20419;-63
2023/03/06 05:23:09;;;;;;;2.60;1.30;;;3.30;99.90;;;;;;5150927;27;20034;-63
2023/03/06 05:25:40;;;;;;;1.60;1.23;;;3.30;99.90;;;;;;5161410;27;20034;-62
2023/03/06 05:28:07;;;;;;;1.90;1.30;;;3.30;99.90;;;;;;5153865;27;20034;-63
2023/03/06 05:30:33;;;;;;;4.53;1.50;;;3.30;99.90;;;;;;5160272;27;20484;-63
2023/03/06 05:32:59;;;;;;;2.42;1.55;;;3.30;99.90;;;;;;5172400;27;20049;-64
2023/03/06 05:35:28;;;;;;;2.00;1.20;;;3.30;99.90;;;;;;5155937;27;20043;-63
2023/03/06 05:37:53;;;;;;;2.72;1.30;;;3.30;99.90;;;;;;5158527;27;20117;-63
2023/03/06 05:40:19;;;;;;;1.90;1.40;;;3.30;99.90;;;;;;5145192;27;20126;-63
2023/03/06 05:42:45;;;;;;;3.35;1.60;;;3.40;99.90;;;;;;5153629;27;20279;-63
2023/03/06 05:45:11;;;;;;;2.17;1.45;;;3.40;99.90;;;;;;5156193;27;20027;-63
2023/03/06 05:47:36;;;;;;;3.08;1.20;;;3.30;99.90;;;;;;5151551;27;20105;-63
2023/03/06 05:50:03;;;;;;;1.85;1.40;;;3.40;99.90;;;;;;5138999;27;20134;-63
2023/03/06 05:52:29;;;;;;;2.10;1.60;;;3.30;99.90;;;;;;5144860;27;20487;-62
2023/03/06 05:54:55;;;;;;;2.83;1.40;;;3.40;99.90;;;;;;5156479;27;20121;-63
2023/03/06 05:57:22;;;;;;;2.30;1.30;;;3.30;99.90;;;;;;5145372;27;20046;-63
2023/03/06 05:59:49;;;;;;;2.88;1.40;;;3.30;99.90;;;;;;5158202;27;20391;-62
2023/03/06 06:02:15;;;;;;;2.03;1.55;;;3.30;99.90;;;;;;5148573;27;20393;-63
2023/03/06 06:04:40;;;;;;;2.40;1.83;;;3.20;99.90;;;;;;5167490;27;20134;-63
2023/03/06 06:07:06;;;;;;;2.50;1.60;;;3.20;99.90;;;;;;5161127;27;20481;-63
2023/03/06 06:09:32;;;;;;;2.22;1.50;;;3.20;99.90;;;;;;5147202;27;20042;-63
2023/03/06 06:12:01;;;;;;;2.20;1.55;;;3.20;99.90;;;;;;5136939;27;20292;-63
2023/03/06 06:14:27;;;;;;;2.03;1.38;;;3.10;99.90;;;;;;5144012;27;20071;-63
2023/03/06 06:16:53;;;;;;;2.00;1.42;;;3.00;99.90;;;;;;5154126;27;20042;-63
2023/03/06 06:19:20;;;;;;;3.28;1.50;;;3.00;99.90;;;;;;5155637;27;20030;-63
2023/03/06 06:21:53;;;;;;;2.97;1.67;;;3.00;99.90;;;;;;5167807;27;20066;-63
2023/03/06 06:24:21;;;;;;;2.15;1.35;;;2.90;99.90;;;;;;5157755;27;20499;-63
2023/03/06 06:26:55;;;;;;;2.75;1.38;;;2.90;99.90;;;;;;5161873;27;20038;-63
2023/03/06 06:29:21;;;;;;;3.10;1.48;;;2.80;99.90;;;;;;5162796;27;20035;-63
2023/03/06 06:31:47;;;;;;;2.00;1.25;;;2.80;99.90;;;;;;5142864;27;20038;-63
2023/03/06 06:34:13;;;;;;;1.65;1.20;;;2.70;99.90;;;;;;5150351;27;20027;-64
2023/03/06 06:36:39;;;;;;;2.25;1.17;;;2.80;99.90;;;;;;5152601;27;20114;-63
2023/03/06 06:39:06;;;;;;;2.22;1.40;;;2.70;99.90;;;;;;5149415;27;20107;-62
2023/03/06 06:41:32;;;;;;;2.20;1.50;;;2.70;99.90;;;;;;5152673;27;20388;-63
2023/03/06 06:43:58;;;;;;;2.65;1.58;;;2.70;99.90;;;;;;5147438;27;20493;-63
2023/03/06 06:46:24;;;;;;;2.67;1.90;;;2.70;99.90;;;;;;5138710;27;20052;-63
2023/03/06 06:48:54;;;;;;;2.78;1.95;;;2.70;99.90;;;;;;5170929;27;20031;-63
2023/03/06 06:51:21;;;;;;;2.53;1.80;;;2.70;99.90;;;;;;5155595;27;20090;-62
2023/03/06 06:53:47;;;;;;;2.97;2.05;;;2.70;99.90;;;;;;5147861;27;20297;-63
2023/03/06 06:56:13;;;;;;;3.67;2.17;;;2.60;99.90;;;;;;5154416;27;20865;-64
2023/03/06 06:58:39;;;;;;;2.92;2.13;;;2.60;99.90;;;;;;5140139;27;20039;-63
2023/03/06 07:01:06;;;;;;;3.90;1.90;;;2.60;99.90;;;;;;5149402;27;20039;-63
2023/03/06 07:03:32;;;;;;;2.70;2.20;;;2.60;99.90;;;;;;5151538;27;20034;-63
2023/03/06 07:05:58;;;;;;;3.28;1.88;;;2.60;99.90;;;;;;5156232;27;20054;-63
2023/03/06 07:08:23;;;;;;;2.08;1.77;;;2.60;99.90;;;;;;5156105;27;20045;-63
2023/03/06 07:10:49;;;;;;;3.63;1.90;;;2.50;99.90;;;;;;5142035;27;20493;-63
2023/03/06 07:13:15;;;;;;;3.40;1.90;;;2.50;99.90;;;;;;5161915;27;20034;-63
2023/03/06 07:15:40;;;;;;;2.75;1.88;;;2.50;99.90;;;;;;5144880;27;20056;-63
2023/03/06 07:18:06;;;;;;;3.80;1.60;;;2.50;99.90;;;;;;5149248;27;20039;-63
2023/03/06 07:20:31;;;;;;;1.90;1.40;;;2.50;99.90;;;;;;5152505;27;20515;-62
2023/03/06 07:22:57;;;;;;;3.58;1.90;;;2.40;99.90;;;;;;5143181;27;20247;-63
2023/03/06 07:25:23;;;;;;;1.98;1.48;;;2.50;99.90;;;;;;5150460;27;20117;-63
2023/03/06 07:27:53;;;;;;;3.67;1.50;;;2.50;99.90;;;;;;5153940;27;20082;-63
2023/03/06 07:30:20;;;;;;;2.33;1.70;;;2.50;99.90;;;;;;5142806;27;20052;-63
2023/03/06 07:32:46;;;;;;;2.20;1.55;;;2.60;99.90;;;;;;5137396;27;20030;-63
2023/03/06 07:35:17;;;;;;;3.35;1.70;;;2.60;99.90;;;;;;5146863;27;20491;-62
2023/03/06 07:37:43;;;;;;;3.22;1.48;;;2.60;99.90;;;;;;5150722;27;20481;-63
2023/03/06 07:40:11;;;;;;;2.95;1.60;;;2.70;99.90;;;;;;5148226;27;20038;-63
2023/03/06 07:42:37;;;;;;;3.13;1.63;;;2.70;99.90;;;;;;5141012;27;20090;-64
2023/03/06 07:45:03;;;;;;;2.97;1.90;;;2.70;99.90;;;;;;5142859;27;20063;-63
2023/03/06 07:47:29;;;;;;;2.92;1.90;;;2.70;99.90;;;;;;5142648;27;20091;-63
2023/03/06 07:49:55;;;;;;;4.15;2.00;;;2.70;99.90;;;;;;5141637;27;20035;-63
2023/03/06 07:52:22;;;;;;;2.63;1.90;;;2.70;99.90;;;;;;5144454;27;20518;-63
2023/03/06 07:54:48;;;;;;;3.85;1.83;;;2.70;99.90;;;;;;5145185;27;20031;-63
2023/03/06 07:57:14;;;;;;;3.95;2.00;;;2.70;99.90;;;;;;5149340;27;20508;-64
2023/03/06 07:59:39;;;;;;;3.72;2.03;;;2.80;99.90;;;;;;5144291;27;20039;-62
2023/03/06 08:02:06;;;;;;;4.65;1.92;;;2.90;99.90;;;;;;5144811;27;20476;-64
2023/03/06 08:04:32;;;;;;;1.90;1.45;;;3.00;99.90;;;;;;5146148;27;20499;-63
2023/03/06 08:06:59;;;;;;;3.58;1.63;;;3.10;99.90;;;;;;5144903;27;20405;-64
2023/03/06 08:09:25;;;;;;;2.60;1.52;;;3.20;99.90;;;;;;5145007;27;20045;-63
2023/03/06 08:11:50;;;;;;;3.22;1.40;;;3.30;99.90;;;;;;5145497;27;20117;-63
2023/03/06 08:14:16;;;;;;;2.28;1.50;;;3.30;99.90;;;;;;5142288;27;20082;-63
2023/03/06 08:16:42;;;;;;;2.40;1.60;;;3.40;99.90;;;;;;5145480;27;20045;-63
2023/03/06 08:19:07;;;;;;;3.58;1.85;;;3.40;99.90;;;;;;5160828;27;20030;-64
2023/03/06 08:21:33;;;;;;;2.50;1.50;;;3.50;99.90;;;;;;5138294;27;20097;-63
2023/03/06 08:23:59;;;;;;;2.53;1.35;;;3.50;99.90;;;;;;5140620;27;20031;-64
2023/03/06 08:26:27;;;;;;;3.08;1.88;;;3.60;99.90;;;;;;5167021;27;20035;-63
2023/03/06 08:28:56;;;;;;;2.60;1.60;;;3.50;99.90;;;;;;5138895;27;20477;-64
2023/03/06 08:31:27;;;;;;;3.20;2.00;;;3.50;99.90;;;;;;5152465;27;20038;-62
2023/03/06 08:33:54;;;;;;;4.80;2.00;;;3.40;99.90;;;;;;5150973;27;20047;-62
2023/03/06 08:36:20;;;;;;;3.58;1.95;;;3.40;99.90;;;;;;5143478;27;20073;-62
2023/03/06 08:38:45;;;;;;;2.95;1.88;;;3.30;99.90;;;;;;5159847;27;20039;-62
2023/03/06 08:41:11;;;;;;;3.45;1.80;;;3.30;99.90;;;;;;5144744;27;20049;-62
2023/03/06 08:43:37;;;;;;;3.10;1.92;;;3.20;99.90;;;;;;5144748;27;20376;-62
2023/03/06 08:46:03;;;;;;;4.22;2.00;;;3.20;99.90;;;;;;5151128;27;20031;-63
2023/03/06 08:48:28;;;;;;;3.17;1.95;;;3.10;99.90;;;;;;5134301;27;20066;-64
2023/03/06 08:50:54;;;;;;;3.38;2.10;;;3.20;99.90;;;;;;5143362;27;20046;-63
2023/03/06 08:53:20;;;;;;;3.55;2.13;;;3.20;99.90;;;;;;5157214;27;20495;-63
2023/03/06 08:55:46;;;;;;;3.78;2.30;;;3.20;99.90;;;;;;5150506;27;20162;-62
2023/03/06 08:58:12;;;;;;;4.63;2.10;;;3.20;99.90;;;;;;5146799;27;20130;-63
2023/03/06 09:00:38;;;;;;;3.40;1.80;;;3.30;99.90;;;;;;5150710;27;20477;-63
2023/03/06 09:03:04;;;;;;;6.10;1.95;;;3.30;99.90;;;;;;5153641;27;20589;-64
2023/03/06 09:05:31;;;;;;;3.33;1.48;;;3.30;99.90;;;;;;5148465;27;20078;-62
2023/03/06 09:07:56;;;;;;;7.38;1.50;;;3.30;99.90;;;;;;5146895;27;20060;-62
2023/03/06 09:10:23;;;;;;;3.22;1.42;;;3.30;99.90;;;;;;5151934;27;20038;-62
2023/03/06 09:12:50;;;;;;;3.92;1.58;;;3.30;99.90;;;;;;5147367;27;20076;-64
2023/03/06 09:15:17;;;;;;;3.65;1.40;;;3.40;99.90;;;;;;5148348;27;20590;-63
2023/03/06 09:17:42;;;;;;;6.93;1.90;;;3.40;99.90;;;;;;5149543;27;20404;-62
2023/03/06 09:20:10;;;;;;;3.92;1.85;;;3.50;99.90;;;;;;5151354;27;20047;-64
2023/03/06 09:22:36;;;;;;;3.05;1.50;;;3.50;99.90;;;;;;5150281;27;20046;-63
2023/03/06 09:25:02;;;;;;;3.63;1.63;;;3.60;99.90;;;;;;5144239;27;20400;-64
2023/03/06 09:27:28;;;;;;;3.00;1.70;;;3.60;99.90;;;;;;5143896;27;20038;-63
2023/03/06 09:29:54;;;;;;;4.55;1.60;;;3.70;99.90;;;;;;5137231;27;20161;-63
2023/03/06 09:32:20;;;;;;;3.15;1.50;;;3.80;99.90;;;;;;5145961;27;20037;-63
2023/03/06 09:34:46;;;;;;;2.60;1.58;;;3.90;99.90;;;;;;5146501;27;20035;-63
2023/03/06 09:37:12;;;;;;;3.85;1.67;;;4.00;99.90;;;;;;5140825;27;20366;-65
2023/03/06 09:39:37;;;;;;;4.80;1.60;;;4.00;99.90;;;;;;5148296;27;20058;-63
2023/03/06 09:42:07;;;;;;;2.00;1.45;;;4.00;99.90;;;;;;5145124;27;20060;-62
2023/03/06 09:44:37;;;;;;;3.00;1.52;;;4.10;99.90;;;;;;5154287;27;20031;-64
2023/03/06 09:47:21;;;;;;;3.53;1.35;;;4.10;99.90;;;;;;5142197;27;20501;-63
2023/03/06 09:50:04;;;;;;;3.90;1.40;;;4.10;99.90;;;;;;5152297;27;20034;-64
2023/03/06 09:52:42;;;;;;;4.80;1.13;;;4.20;99.90;;;;;;5144405;27;20337;-65
2023/03/06 09:55:18;;;;;;;2.63;1.17;;;4.20;99.90;;;;;;5146381;27;20049;-65
2023/03/06 09:58:12;;;;;;;3.28;1.30;;;4.20;99.90;;;;;;5143312;27;20038;-63
2023/03/06 10:00:40;;;;;;;3.28;1.10;;;4.20;99.90;;;;;;5145971;27;20485;-63
2023/03/06 10:03:15;;;;;;;3.70;1.15;;;4.30;99.90;;;;;;5144359;27;20118;-63
2023/03/06 10:05:47;;;;;;;3.97;1.23;;;4.40;99.90;;;;;;5146069;27;20417;-62
2023/03/06 10:08:24;;;;;;;5.07;1.58;;;4.50;99.90;;;;;;5144802;27;20034;-63
2023/03/06 10:11:03;;;;;;;5.43;1.08;;;4.60;99.90;;;;;;5146089;27;20047;-63
2023/03/06 10:13:56;;;;;;;3.58;1.10;;;4.70;99.90;;;;;;5151159;27;20132;-63
2023/03/06 10:16:26;;;;;;;4.18;1.05;;;4.80;99.90;;;;;;5140652;27;20039;-64
2023/03/06 10:19:06;;;;;;;2.90;1.02;;;4.90;99.90;;;;;;5143977;27;20099;-63
2023/03/06 10:21:50;;;;;;;2.05;1.00;;;5.00;99.90;;;;;;5144952;27;20058;-65
2023/03/06 10:24:53;;;;;;;4.60;1.20;;;5.00;99.90;;;;;;5146810;27;20031;-64
2023/03/06 10:27:41;;;;;;;3.38;0.85;;;4.90;99.90;;;;;;5143866;27;20122;-63
2023/03/06 10:30:35;;;;;;;3.38;1.02;;;4.90;99.90;;;;;;5150367;27;20046;-63
2023/03/06 10:33:23;;;;;;;2.22;0.80;;;5.00;99.90;;;;;;5164043;27;20411;-63
2023/03/06 10:35:53;;;;;;;1.77;0.77;;;4.80;99.90;;;;;;5141795;27;20050;-63
2023/03/06 10:38:36;;;;;;;1.88;0.90;;;4.70;99.90;;;;;;5148947;27;20502;-64
2023/03/06 10:41:10;;;;;;;1.30;0.70;;;4.70;99.90;;;;;;5139654;27;20621;-64
2023/03/06 10:43:44;;;;;;;1.25;0.80;;;4.90;99.90;;;;;;5144878;27;20050;-63
2023/03/06 10:46:13;;;;;;;3.40;0.80;;;5.30;99.90;;;;;;5145791;27;20031;-64
2023/03/06 10:48:40;;;;;;;4.43;0.80;;;5.60;99.90;;;;;;5153969;27;20098;-65
2023/03/06 10:51:17;;;;;;;2.72;1.00;;;5.80;99.90;;;;;;5148126;27;20121;-64
2023/03/06 10:54:21;;;;;;;3.55;1.00;;;6.00;99.90;;;;;;5140589;27;20058;-65
2023/03/06 10:56:47;;;;;;;3.47;1.10;;;6.20;99.90;;;;;;5140084;27;20055;-64
2023/03/06 10:59:21;;;;;;;2.53;0.80;;;6.40;99.90;;;;;;5155083;27;20049;-63
2023/03/06 11:01:53;;;;;;;3.95;0.85;;;6.70;99.90;;;;;;5149673;27;20130;-63
2023/03/06 11:04:31;;;;;;;2.95;0.80;;;6.90;99.90;;;;;;5144841;27;20047;-63
2023/03/06 11:07:22;;;;;;;3.50;0.93;;;6.90;99.90;;;;;;5138696;27;20031;-65
2023/03/06 11:09:57;;;;;;;3.78;0.90;;;6.80;99.90;;;;;;5133727;27;20038;-63
2023/03/06 11:12:33;;;;;;;5.10;1.20;;;6.80;99.90;;;;;;5140499;27;20054;-64
2023/03/06 11:15:19;;;;;;;3.00;1.10;;;6.80;99.90;;;;;;5147767;27;20034;-63
2023/03/06 11:17:58;;;;;;;5.70;1.00;;;6.70;99.90;;;;;;5142455;27;20042;-63
2023/03/06 11:20:42;;;;;;;1.55;0.80;;;6.50;99.90;;;;;;5140699;27;20445;-64
2023/03/06 11:23:45;;;;;;;4.40;1.20;;;6.40;99.90;;;;;;5149594;27;20084;-63
2023/03/06 11:26:16;;;;;;;2.40;1.23;;;6.60;99.90;;;;;;5148765;27;20188;-64
2023/03/06 11:28:52;;;;;;;3.92;1.30;;;6.70;99.90;;;;;;5141330;27;20067;-64
2023/03/06 11:31:22;;;;;;;4.03;1.00;;;6.80;99.90;;;;;;5161505;27;20066;-64
2023/03/06 11:33:57;;;;;;;2.78;0.90;;;6.90;99.90;;;;;;5138282;27;20042;-63
2023/03/06 11:36:57;;;;;;;3.03;1.10;;;6.90;99.90;;;;;;5146656;27;20048;-64
2023/03/06 11:39:36;;;;;;;3.25;1.10;;;6.80;99.90;;;;;;5139822;27;20031;-63
2023/03/06 11:42:39;;;;;;;3.28;1.10;;;6.90;99.90;;;;;;5139655;27;20042;-64
2023/03/06 11:45:27;;;;;;;6.03;1.42;;;6.90;99.90;;;;;;5058941;28;20426;-62
2023/03/06 11:48:12;;;;;;;2.60;1.10;;;7.00;99.90;;;;;;5128213;27;20074;-63
2023/03/06 11:50:42;;;;;;;3.50;0.73;;;7.10;99.90;;;;;;5162235;27;20046;-63
2023/03/06 11:53:14;;;;;;;2.22;0.82;;;7.10;99.90;;;;;;5144398;27;20316;-63
2023/03/06 11:55:51;;;;;;;1.75;0.77;;;7.20;99.90;;;;;;5144782;27;20148;-64
2023/03/06 11:58:41;;;;;;;6.00;1.08;;;7.30;99.90;;;;;;5143789;27;20393;-63
2023/03/06 12:01:35;;;;;;;2.97;0.93;;;7.40;99.90;;;;;;5153107;27;20046;-62
2023/03/06 12:04:23;;;;;;;3.72;1.05;;;7.50;99.90;;;;;;5151644;27;20031;-62
2023/03/06 12:06:52;;;;;;;2.65;1.13;;;7.60;99.90;;;;;;5149636;27;20043;-63
2023/03/06 12:09:22;;;;;;;5.15;1.38;;;7.70;99.90;;;;;;5142335;27;20043;-64
2023/03/06 12:12:18;;;;;;;3.35;1.35;;;7.80;99.90;;;;;;5146816;27;20054;-63
2023/03/06 12:15:03;;;;;;;3.45;1.42;;;7.90;99.90;;;;;;5156848;27;20038;-62
2023/03/06 12:17:47;;;;;;;4.70;1.48;;;7.90;99.90;;;;;;5146342;27;20443;-64
2023/03/06 12:20:35;;;;;;;4.07;1.17;;;7.90;99.90;;;;;;5155207;27;20050;-61
2023/03/06 12:23:15;;;;;;;3.92;1.38;;;7.90;99.90;;;;;;5140345;27;20049;-64
2023/03/06 12:26:13;;;;;;;4.03;1.73;;;7.80;99.90;;;;;;5153386;27;20027;-64
2023/03/06 12:29:17;;;;;;;3.50;1.48;;;7.90;99.90;;;;;;5093284;27;20458;-64
2023/03/06 12:31:49;;;;;;;3.17;1.25;;;7.80;99.90;;;;;;5159729;27;20146;-64
2023/03/06 12:34:27;;;;;;;3.35;1.10;;;7.90;99.90;;;;;;5148383;27;20043;-64
2023/03/06 12:36:53;;;;;;;3.50;1.10;;;7.90;99.90;;;;;;5149083;27;20038;-62
2023/03/06 12:39:46;;;;;;;4.40;1.60;;;7.90;99.90;;;;;;5145238;27;20528;-63
2023/03/06 12:42:39;;;;;;;5.30;1.30;;;7.80;99.90;;;;;;5140342;27;20043;-63
2023/03/06 12:45:10;;;;;;;3.10;1.20;;;7.80;99.90;;;;;;5157161;27;20376;-64
2023/03/06 12:47:43;;;;;;;2.83;0.95;;;7.80;99.90;;;;;;5149438;27;20035;-64
2023/03/06 12:50:30;;;;;;;3.15;1.10;;;7.70;99.90;;;;;;5161415;27;20078;-64
2023/03/06 12:53:00;;;;;;;3.58;1.00;;;7.70;99.90;;;;;;5148114;27;20385;-64
2023/03/06 12:55:29;;;;;;;3.42;1.50;;;7.40;99.90;;;;;;5156537;27;20049;-64
2023/03/06 12:57:55;;;;;;;3.13;1.23;;;7.30;99.90;;;;;;5137194;27;20536;-64
2023/03/06 13:00:36;;;;;;;2.22;1.10;;;7.20;99.90;;;;;;5167371;27;20133;-63
2023/03/06 13:03:13;;;;;;;2.88;1.30;;;7.20;99.90;;;;;;5149884;27;20377;-64
2023/03/06 13:06:11;;;;;;;6.32;1.20;;;7.20;99.90;;;;;;5156143;27;20484;-64
2023/03/06 13:09:02;;;;;;;3.53;1.10;;;7.30;99.90;;;;;;5151741;27;20054;-62